createdAt,value
2018-11-07T00:02:02.634Z,24.63
2018-11-07T00:04:31.296Z,24.20
2018-11-07T00:06:59.942Z,24.93
2018-11-07T00:09:28.628Z,22.93
2018-11-07T00:11:57.349Z,23.60
2018-11-07T00:14:26.161Z,25.03
2018-11-07T00:16:54.935Z,24.00
2018-11-07T00:19:23.628Z,25.43
2018-11-07T00:21:52.255Z,24.10
2018-11-07T00:24:20.911Z,25.37
2018-11-07T00:26:49.549Z,24.93
2018-11-07T00:29:18.255Z,25.40
2018-11-07T00:31:46.945Z,24.60
2018-11-07T00:34:15.583Z,24.33
2018-11-07T00:36:44.191Z,24.23
2018-11-07T00:39:12.990Z,24.20
2018-11-07T00:41:41.622Z,25.40
2018-11-07T00:44:10.232Z,24.37
2018-11-07T00:46:38.853Z,24.47
2018-11-07T00:49:07.472Z,24.67
2018-11-07T00:51:36.145Z,25.57
2018-11-07T00:54:05.202Z,26.20
2018-11-07T00:56:33.809Z,24.57
2018-11-07T00:59:02.415Z,25.20
2018-11-07T01:01:31.030Z,26.40
2018-11-07T01:03:59.686Z,25.13
2018-11-07T01:06:28.299Z,25.77
2018-11-07T01:08:56.908Z,25.57
2018-11-07T01:11:25.597Z,24.57
2018-11-07T01:13:54.409Z,25.00
2018-11-07T01:16:23.113Z,24.17
2018-11-07T01:18:51.759Z,23.40
2018-11-07T01:21:20.389Z,25.40
2018-11-07T01:23:48.981Z,23.77
2018-11-07T01:26:17.613Z,24.20
2018-11-07T01:28:46.196Z,23.90
2018-11-07T01:31:14.814Z,23.20
2018-11-07T01:33:43.424Z,23.77
2018-11-07T01:36:12.074Z,23.83
2018-11-07T01:38:40.731Z,23.40
2018-11-07T01:41:09.354Z,24.57
2018-11-07T01:43:38.032Z,24.87
2018-11-07T01:46:07.388Z,23.00
2018-11-07T01:48:36.016Z,24.30
2018-11-07T01:51:05.168Z,23.57
2018-11-07T01:53:33.757Z,23.43
2018-11-07T01:56:02.399Z,24.20
2018-11-07T01:58:31.112Z,24.53
2018-11-07T02:00:59.725Z,23.37
2018-11-07T02:03:28.398Z,23.37
2018-11-07T02:05:57.041Z,23.63
2018-11-07T02:08:29.910Z,23.50
2018-11-07T02:10:58.916Z,23.17
2018-11-07T02:13:27.639Z,23.30
2018-11-07T02:15:56.313Z,22.80
2018-11-07T02:18:24.997Z,22.33
2018-11-07T02:20:53.695Z,23.80
2018-11-07T02:23:22.346Z,22.67
2018-11-07T02:25:50.996Z,25.13
2018-11-07T02:28:19.666Z,23.53
2018-11-07T02:30:48.264Z,22.67
2018-11-07T02:33:16.972Z,23.10
2018-11-07T02:35:45.613Z,22.07
2018-11-07T02:38:14.389Z,23.57
2018-11-07T02:40:43.072Z,23.63
2018-11-07T02:43:11.778Z,22.83
2018-11-07T02:45:40.381Z,23.23
2018-11-07T02:48:09.047Z,23.10
2018-11-07T02:50:37.683Z,24.40
2018-11-07T02:53:06.414Z,24.20
2018-11-07T02:55:35.039Z,22.63
2018-11-07T02:58:03.667Z,23.90
2018-11-07T03:00:32.375Z,22.80
2018-11-07T03:03:01.037Z,23.70
2018-11-07T03:05:29.740Z,22.17
2018-11-07T03:07:58.361Z,23.33
2018-11-07T03:10:27.024Z,22.80
2018-11-07T03:12:55.660Z,23.57
2018-11-07T03:15:24.352Z,22.13
2018-11-07T03:17:52.960Z,22.33
2018-11-07T03:20:21.556Z,22.70
2018-11-07T03:22:50.353Z,22.80
2018-11-07T03:25:19.056Z,21.93
2018-11-07T03:27:53.936Z,21.33
2018-11-07T03:30:22.601Z,21.57
2018-11-07T03:32:51.280Z,22.77
2018-11-07T03:35:25.315Z,22.53
2018-11-07T03:37:54.434Z,20.43
2018-11-07T03:40:23.229Z,21.13
2018-11-07T03:42:51.865Z,20.03
2018-11-07T03:45:24.700Z,20.53
2018-11-07T03:47:53.272Z,19.87
2018-11-07T03:50:21.862Z,19.63
2018-11-07T03:52:50.496Z,20.47
2018-11-07T03:55:19.126Z,19.90
2018-11-07T03:57:47.681Z,20.03
2018-11-07T04:00:16.395Z,19.70
2018-11-07T04:02:44.970Z,19.03
2018-11-07T04:05:13.584Z,19.47
2018-11-07T04:07:43.096Z,18.90
2018-11-07T04:10:11.816Z,19.97
2018-11-07T04:12:40.445Z,18.80
2018-11-07T04:15:09.851Z,19.57
2018-11-07T04:17:38.539Z,19.10
2018-11-07T04:20:08.127Z,18.63
2018-11-07T04:22:36.818Z,18.60
2018-11-07T04:25:06.053Z,19.47
2018-11-07T04:27:34.904Z,18.60
2018-11-07T04:30:04.355Z,19.30
2018-11-07T04:32:32.996Z,18.07
2018-11-07T04:35:01.621Z,18.93
2018-11-07T04:37:30.315Z,17.87
2018-11-07T04:39:58.949Z,17.60
2018-11-07T04:42:27.613Z,17.93
2018-11-07T04:44:56.233Z,17.10
2018-11-07T04:47:24.979Z,17.10
2018-11-07T04:49:53.571Z,17.80
2018-11-07T04:52:22.170Z,18.03
2018-11-07T04:54:50.767Z,19.67
2018-11-07T04:57:19.436Z,18.20
2018-11-07T04:59:48.061Z,17.00
2018-11-07T05:02:16.659Z,17.93
2018-11-07T05:04:46.586Z,17.03
2018-11-07T05:07:15.144Z,17.50
2018-11-07T05:09:43.758Z,17.53
2018-11-07T05:12:12.364Z,17.27
2018-11-07T05:14:41.003Z,17.43
2018-11-07T05:17:09.628Z,17.03
2018-11-07T05:19:38.298Z,17.70
2018-11-07T05:22:06.868Z,17.97
2018-11-07T05:24:35.529Z,17.20
2018-11-07T05:27:04.135Z,17.43
2018-11-07T05:29:32.692Z,17.40
2018-11-07T05:32:01.772Z,16.47
2018-11-07T05:34:30.333Z,16.90
2018-11-07T05:36:58.987Z,15.73
2018-11-07T05:39:27.641Z,16.33
2018-11-07T05:41:56.233Z,16.37
2018-11-07T05:44:24.961Z,16.37
2018-11-07T05:46:53.588Z,14.93
2018-11-07T05:49:22.260Z,15.73
2018-11-07T05:51:50.910Z,15.10
2018-11-07T05:54:19.579Z,16.27
2018-11-07T05:56:48.147Z,16.07
2018-11-07T05:59:16.756Z,15.53
2018-11-07T06:01:45.416Z,14.93
2018-11-07T06:04:14.072Z,15.13
2018-11-07T06:06:42.698Z,15.40
2018-11-07T06:09:11.333Z,15.33
2018-11-07T06:11:39.921Z,14.50
2018-11-07T06:14:08.522Z,15.03
2018-11-07T06:16:37.508Z,14.73
2018-11-07T06:19:06.390Z,13.97
2018-11-07T06:21:35.060Z,14.80
2018-11-07T06:24:03.672Z,15.17
2018-11-07T06:26:32.307Z,14.87
2018-11-07T06:29:00.962Z,15.17
2018-11-07T06:31:29.547Z,14.83
2018-11-07T06:33:58.276Z,15.10
2018-11-07T06:36:26.842Z,15.13
2018-11-07T06:38:55.484Z,15.40
2018-11-07T06:41:24.091Z,15.07
2018-11-07T06:43:52.760Z,16.33
2018-11-07T06:46:21.370Z,14.73
2018-11-07T06:48:51.314Z,14.93
2018-11-07T06:51:19.898Z,14.57
2018-11-07T06:53:48.519Z,14.50
2018-11-07T06:56:17.120Z,14.57
2018-11-07T06:58:45.728Z,14.37
2018-11-07T07:01:14.407Z,15.23
2018-11-07T07:03:43.180Z,15.10
2018-11-07T07:06:11.829Z,14.27
2018-11-07T07:08:40.472Z,14.57
2018-11-07T07:11:09.104Z,13.80
2018-11-07T07:13:37.803Z,15.40
2018-11-07T07:16:06.517Z,13.83
2018-11-07T07:18:35.159Z,14.93
2018-11-07T07:21:04.013Z,14.93
2018-11-07T07:23:32.768Z,15.40
2018-11-07T07:26:01.368Z,14.13
2018-11-07T07:28:29.991Z,14.17
2018-11-07T07:30:58.611Z,14.67
2018-11-07T07:33:27.480Z,14.40
2018-11-07T07:35:56.068Z,15.17
2018-11-07T07:38:24.682Z,15.17
2018-11-07T07:40:53.282Z,14.37
2018-11-07T07:43:21.862Z,16.13
2018-11-07T07:45:50.569Z,15.23
2018-11-07T07:48:19.130Z,15.60
2018-11-07T07:50:47.730Z,15.43
2018-11-07T07:53:16.444Z,14.53
2018-11-07T07:55:45.044Z,14.77
2018-11-07T07:58:13.655Z,15.03
2018-11-07T08:00:42.309Z,15.23
2018-11-07T08:03:11.378Z,16.57
2018-11-07T08:05:39.987Z,17.23
2018-11-07T08:08:08.653Z,15.43
2018-11-07T08:10:37.257Z,15.87
2018-11-07T08:13:06.197Z,14.53
2018-11-07T08:15:34.840Z,15.63
2018-11-07T08:18:03.645Z,14.60
2018-11-07T08:20:32.262Z,15.50
2018-11-07T08:23:00.890Z,15.57
2018-11-07T08:25:29.578Z,14.23
2018-11-07T08:27:58.198Z,14.87
2018-11-07T08:30:26.848Z,15.30
2018-11-07T08:32:55.516Z,14.40
2018-11-07T08:35:24.164Z,14.10
2018-11-07T08:37:52.772Z,14.20
2018-11-07T08:40:22.951Z,13.93
2018-11-07T08:42:52.108Z,14.43
2018-11-07T08:45:20.696Z,13.90
2018-11-07T08:47:49.290Z,13.93
2018-11-07T08:50:20.044Z,13.97
2018-11-07T08:52:48.903Z,13.80
2018-11-07T08:55:18.885Z,13.83
2018-11-07T08:57:47.553Z,14.43
2018-11-07T09:00:18.579Z,13.57
2018-11-07T09:02:47.423Z,13.77
2018-11-07T09:05:16.710Z,13.10
2018-11-07T09:07:46.242Z,13.87
2018-11-07T09:10:16.153Z,13.70
2018-11-07T09:12:44.803Z,12.37
2018-11-07T09:15:17.551Z,12.63
2018-11-07T09:17:46.185Z,12.43
2018-11-07T09:20:18.325Z,12.40
2018-11-07T09:22:47.019Z,13.10
2018-11-07T09:25:16.107Z,11.23
2018-11-07T09:27:45.454Z,11.90
2018-11-07T09:30:16.045Z,11.13
2018-11-07T09:32:44.754Z,11.23
2018-11-07T09:35:13.790Z,11.00
2018-11-07T09:37:42.431Z,11.17
2018-11-07T09:40:13.257Z,10.93
2018-11-07T09:42:42.564Z,9.93
2018-11-07T09:45:12.722Z,10.70
2018-11-07T09:47:41.996Z,10.37
2018-11-07T09:50:11.809Z,11.10
2018-11-07T09:52:41.022Z,11.57
2018-11-07T09:55:11.187Z,9.97
2018-11-07T09:57:40.273Z,10.60
2018-11-07T10:00:11.299Z,9.80
2018-11-07T10:02:40.355Z,9.80
2018-11-07T10:05:09.767Z,10.40
2018-11-07T10:07:39.284Z,10.03
2018-11-07T10:10:10.370Z,9.67
2018-11-07T10:12:39.904Z,9.37
2018-11-07T10:15:09.341Z,9.83
2018-11-07T10:17:38.333Z,10.10
2018-11-07T10:20:09.470Z,9.30
2018-11-07T10:22:38.116Z,9.73
2018-11-07T10:25:07.653Z,8.77
2018-11-07T10:27:36.894Z,9.37
2018-11-07T10:30:06.518Z,9.03
2018-11-07T10:32:34.817Z,9.30
2018-11-07T10:35:03.715Z,8.27
2018-11-07T10:37:32.663Z,7.47
2018-11-07T10:40:01.400Z,6.30
2018-11-07T10:42:30.003Z,5.97
2018-11-07T10:44:58.853Z,6.20
2018-11-07T10:47:27.445Z,6.27
2018-11-07T10:49:56.247Z,6.50
2018-11-07T10:52:24.879Z,5.97
2018-11-07T10:54:53.645Z,5.50
2018-11-07T10:57:22.417Z,5.97
2018-11-07T10:59:51.059Z,5.27
2018-11-07T11:02:25.095Z,10.73
2018-11-07T11:04:53.731Z,5.47
2018-11-07T11:07:22.372Z,4.90
2018-11-07T11:09:51.026Z,6.27
2018-11-07T11:12:19.688Z,9.10
2018-11-07T11:14:48.288Z,6.33
2018-11-07T11:17:16.914Z,4.90
2018-11-07T11:19:45.502Z,5.30
2018-11-07T11:22:14.154Z,5.00
2018-11-07T11:24:42.954Z,5.07
2018-11-07T11:27:11.598Z,5.00
2018-11-07T11:29:40.184Z,4.70
2018-11-07T11:32:08.857Z,4.10
2018-11-07T11:34:37.482Z,4.13
2018-11-07T11:37:06.363Z,3.83
2018-11-07T11:39:35.060Z,4.37
2018-11-07T11:42:03.699Z,4.03
2018-11-07T11:44:32.461Z,4.00
2018-11-07T11:47:01.121Z,4.00
2018-11-07T11:49:29.771Z,3.70
2018-11-07T11:51:58.387Z,3.93
2018-11-07T11:54:26.978Z,3.60
2018-11-07T11:56:55.629Z,3.97
2018-11-07T11:59:24.473Z,4.03
2018-11-07T12:01:52.910Z,3.40
2018-11-07T12:04:21.722Z,3.60
2018-11-07T12:06:50.448Z,3.60
2018-11-07T12:09:19.171Z,3.53
2018-11-07T12:11:47.980Z,3.60
2018-11-07T12:14:16.565Z,3.40
2018-11-07T12:16:45.186Z,3.87
2018-11-07T12:19:13.989Z,3.80
2018-11-07T12:21:42.626Z,3.10
2018-11-07T12:24:11.365Z,3.47
2018-11-07T12:26:40.028Z,3.60
2018-11-07T12:29:08.626Z,3.60
2018-11-07T12:31:37.265Z,3.57
2018-11-07T12:34:06.395Z,3.20
2018-11-07T12:36:35.079Z,3.47
2018-11-07T12:39:04.593Z,3.63
2018-11-07T12:41:33.205Z,3.40
2018-11-07T12:44:01.787Z,3.37
2018-11-07T12:46:30.501Z,3.40
2018-11-07T12:48:59.160Z,4.70
2018-11-07T12:51:27.964Z,3.50
2018-11-07T12:53:56.563Z,3.77
2018-11-07T12:56:26.186Z,3.40
2018-11-07T12:58:54.796Z,3.90
2018-11-07T13:01:23.404Z,3.33
2018-11-07T13:03:52.000Z,3.33
2018-11-07T13:06:20.618Z,3.10
2018-11-07T13:08:49.278Z,3.37
2018-11-07T13:11:18.008Z,3.13
2018-11-07T13:13:46.834Z,3.00
2018-11-07T13:16:15.442Z,2.90
2018-11-07T13:18:44.077Z,3.60
2018-11-07T13:21:12.711Z,2.70
2018-11-07T13:23:41.839Z,2.93
2018-11-07T13:26:10.449Z,3.10
2018-11-07T13:28:39.085Z,2.90
2018-11-07T13:31:07.693Z,2.90
2018-11-07T13:33:36.324Z,2.70
2018-11-07T13:36:04.983Z,2.97
2018-11-07T13:38:33.790Z,2.90
2018-11-07T13:41:02.328Z,2.60
2018-11-07T13:43:30.901Z,2.70
2018-11-07T13:45:59.633Z,2.60
2018-11-07T13:48:28.192Z,3.03
2018-11-07T13:50:56.842Z,2.50
2018-11-07T13:53:25.441Z,2.20
2018-11-07T13:55:54.086Z,2.40
2018-11-07T13:58:22.698Z,2.73
2018-11-07T14:00:51.368Z,2.50
2018-11-07T14:03:20.049Z,2.53
2018-11-07T14:05:48.716Z,2.63
2018-11-07T14:08:17.379Z,2.50
2018-11-07T14:10:46.183Z,1.97
2018-11-07T14:13:14.925Z,2.33
2018-11-07T14:15:43.703Z,2.17
2018-11-07T14:18:12.417Z,2.07
2018-11-07T14:20:41.086Z,2.40
2018-11-07T14:23:09.689Z,1.90
2018-11-07T14:25:38.299Z,2.00
2018-11-07T14:28:07.811Z,2.10
2018-11-07T14:30:36.300Z,2.23
2018-11-07T14:33:04.952Z,2.03
2018-11-07T14:35:33.600Z,2.33
2018-11-07T14:38:02.257Z,2.20
2018-11-07T14:40:31.100Z,2.37
2018-11-07T14:42:59.712Z,1.93
2018-11-07T14:45:28.424Z,2.20
2018-11-07T14:47:57.251Z,2.40
2018-11-07T14:50:25.921Z,2.43
2018-11-07T14:52:54.724Z,2.23
2018-11-07T14:55:23.460Z,2.53
2018-11-07T14:57:52.139Z,2.23
2018-11-07T15:00:20.765Z,2.30
2018-11-07T15:02:49.470Z,2.60
2018-11-07T15:05:18.793Z,2.73
2018-11-07T15:07:47.447Z,2.37
2018-11-07T15:10:17.019Z,2.33
2018-11-07T15:12:45.799Z,2.60
2018-11-07T15:15:17.644Z,2.67
2018-11-07T15:17:46.375Z,7.67
2018-11-07T15:20:16.044Z,5.60
2018-11-07T15:22:44.724Z,3.73
2018-11-07T15:25:14.648Z,3.63
2018-11-07T15:27:44.369Z,3.10
2018-11-07T15:30:14.154Z,2.87
2018-11-07T15:32:43.360Z,2.90
2018-11-07T15:35:12.514Z,2.80
2018-11-07T15:37:41.402Z,3.07
2018-11-07T15:40:12.625Z,3.20
2018-11-07T15:42:41.837Z,3.00
2018-11-07T15:45:12.161Z,3.20
2018-11-07T15:47:41.260Z,3.20
2018-11-07T15:50:15.135Z,3.20
2018-11-07T15:52:44.243Z,3.20
2018-11-07T15:55:13.108Z,3.60
2018-11-07T15:57:41.752Z,4.33
2018-11-07T16:00:12.708Z,4.00
2018-11-07T16:02:41.731Z,3.23
2018-11-07T16:05:11.849Z,3.30
2018-11-07T16:07:40.462Z,3.20
2018-11-07T16:10:10.867Z,3.20
2018-11-07T16:12:40.365Z,3.80
2018-11-07T16:15:11.014Z,3.33
2018-11-07T16:17:39.970Z,3.17
2018-11-07T16:20:13.358Z,3.80
2018-11-07T16:22:43.347Z,6.53
2018-11-07T16:25:11.940Z,4.60
2018-11-07T16:27:41.476Z,4.33
2018-11-07T16:30:12.939Z,4.67
2018-11-07T16:32:41.582Z,4.30
2018-11-07T16:35:11.351Z,4.53
2018-11-07T16:37:40.389Z,4.20
2018-11-07T16:40:11.050Z,4.73
2018-11-07T16:42:40.190Z,5.53
2018-11-07T16:45:10.328Z,5.93
2018-11-07T16:47:39.726Z,5.23
2018-11-07T16:50:09.619Z,4.90
2018-11-07T16:52:38.621Z,4.60
2018-11-07T16:55:07.455Z,4.90
2018-11-07T16:57:36.801Z,4.70
2018-11-07T17:00:08.685Z,4.40
2018-11-07T17:02:37.369Z,4.37
2018-11-07T17:05:06.099Z,4.60
2018-11-07T17:07:34.698Z,4.83
2018-11-07T17:10:03.309Z,4.80
2018-11-07T17:12:31.964Z,4.53
2018-11-07T17:15:00.581Z,4.97
2018-11-07T17:17:29.372Z,4.97
2018-11-07T17:19:57.973Z,4.67
2018-11-07T17:22:27.095Z,4.80
2018-11-07T17:24:55.816Z,4.77
2018-11-07T17:27:24.695Z,4.47
2018-11-07T17:29:53.367Z,4.50
2018-11-07T17:32:22.003Z,4.47
2018-11-07T17:34:50.644Z,4.40
2018-11-07T17:37:19.274Z,4.53
2018-11-07T17:39:47.943Z,4.47
2018-11-07T17:42:16.538Z,4.07
2018-11-07T17:44:45.134Z,4.47
2018-11-07T17:47:13.788Z,4.73
2018-11-07T17:49:42.377Z,4.93
2018-11-07T17:52:12.021Z,4.37
2018-11-07T17:54:40.651Z,4.80
2018-11-07T17:57:09.281Z,4.20
2018-11-07T17:59:37.998Z,4.60
2018-11-07T18:02:06.699Z,4.80
2018-11-07T18:04:35.335Z,5.03
2018-11-07T18:07:04.095Z,4.93
2018-11-07T18:09:32.736Z,5.10
2018-11-07T18:12:01.308Z,5.30
2018-11-07T18:14:29.921Z,4.70
2018-11-07T18:16:58.646Z,5.27
2018-11-07T18:19:27.268Z,5.17
2018-11-07T18:21:55.942Z,4.97
2018-11-07T18:24:24.556Z,5.37
2018-11-07T18:26:53.158Z,5.60
2018-11-07T18:29:21.729Z,5.73
2018-11-07T18:31:50.380Z,5.20
2018-11-07T18:34:18.981Z,5.20
2018-11-07T18:36:47.609Z,5.83
2018-11-07T18:39:16.248Z,6.57
2018-11-07T18:41:44.856Z,8.07
2018-11-07T18:44:13.533Z,6.13
2018-11-07T18:46:42.100Z,5.33
2018-11-07T18:49:10.733Z,6.00
2018-11-07T18:51:39.367Z,6.10
2018-11-07T18:54:07.989Z,5.63
2018-11-07T18:56:36.625Z,5.80
2018-11-07T18:59:05.363Z,5.93
2018-11-07T19:01:34.277Z,5.07
2018-11-07T19:04:02.930Z,5.80
2018-11-07T19:06:31.602Z,5.13
2018-11-07T19:09:01.277Z,5.40
2018-11-07T19:11:29.889Z,5.63
2018-11-07T19:13:58.547Z,6.00
2018-11-07T19:16:27.226Z,5.10
2018-11-07T19:18:55.822Z,5.03
2018-11-07T19:21:24.465Z,5.37
2018-11-07T19:23:53.087Z,7.30
2018-11-07T19:26:21.775Z,6.20
2018-11-07T19:28:50.465Z,5.87
2018-11-07T19:31:19.088Z,5.10
2018-11-07T19:33:47.694Z,5.50
2018-11-07T19:36:16.273Z,5.80
2018-11-07T19:38:44.935Z,6.13
2018-11-07T19:41:13.553Z,5.90
2018-11-07T19:43:42.806Z,6.47
2018-11-07T19:46:11.452Z,5.97
2018-11-07T19:48:40.305Z,5.80
2018-11-07T19:51:08.989Z,5.70
2018-11-07T19:53:37.682Z,6.00
2018-11-07T19:56:06.515Z,5.90
2018-11-07T19:58:35.151Z,6.50
2018-11-07T20:01:03.769Z,5.30
2018-11-07T20:03:32.380Z,5.20
2018-11-07T20:06:01.960Z,5.27
2018-11-07T20:08:30.634Z,5.83
2018-11-07T20:10:59.322Z,5.57
2018-11-07T20:13:27.959Z,6.83
2018-11-07T20:15:56.590Z,6.07
2018-11-07T20:18:25.202Z,6.00
2018-11-07T20:20:53.906Z,5.30
2018-11-07T20:23:22.811Z,5.33
2018-11-07T20:25:51.452Z,8.93
2018-11-07T20:28:20.086Z,9.57
2018-11-07T20:30:48.718Z,5.87
2018-11-07T20:33:17.349Z,5.40
2018-11-07T20:35:46.062Z,5.50
2018-11-07T20:38:14.688Z,5.80
2018-11-07T20:40:43.384Z,5.33
2018-11-07T20:43:11.989Z,5.57
2018-11-07T20:45:40.625Z,6.17
2018-11-07T20:48:09.477Z,5.93
2018-11-07T20:50:38.358Z,5.37
2018-11-07T20:53:07.013Z,5.27
2018-11-07T20:55:36.947Z,5.70
2018-11-07T20:58:06.174Z,5.73
2018-11-07T21:00:34.801Z,5.10
2018-11-07T21:03:04.300Z,5.53
2018-11-07T21:05:32.984Z,5.57
2018-11-07T21:08:01.888Z,5.13
2018-11-07T21:10:30.536Z,6.10
2018-11-07T21:12:59.140Z,5.10
2018-11-07T21:15:27.782Z,5.90
2018-11-07T21:17:56.453Z,5.60
2018-11-07T21:20:25.093Z,5.23
2018-11-07T21:22:53.797Z,5.53
2018-11-07T21:25:22.441Z,5.47
2018-11-07T21:27:51.094Z,4.90
2018-11-07T21:30:19.757Z,4.93
2018-11-07T21:32:48.419Z,5.33
2018-11-07T21:35:17.837Z,5.60
2018-11-07T21:37:46.535Z,5.13
2018-11-07T21:40:16.449Z,4.90
2018-11-07T21:42:46.073Z,4.93
2018-11-07T21:45:15.370Z,5.20
2018-11-07T21:47:46.013Z,5.70
2018-11-07T21:50:16.992Z,5.00
2018-11-07T21:52:45.777Z,5.20
2018-11-07T21:55:14.431Z,4.73
2018-11-07T21:57:43.097Z,5.10
2018-11-07T22:00:16.008Z,5.07
2018-11-07T22:02:44.908Z,4.87
2018-11-07T22:05:14.232Z,5.03
2018-11-07T22:07:43.753Z,4.53
2018-11-07T22:10:13.870Z,4.60
2018-11-07T22:12:42.552Z,4.80
2018-11-07T22:15:11.325Z,5.10
2018-11-07T22:17:40.119Z,4.97
2018-11-07T22:20:13.931Z,5.70
2018-11-07T22:22:43.000Z,5.40
2018-11-07T22:25:11.726Z,4.90
2018-11-07T22:27:40.369Z,4.60
2018-11-07T22:30:10.803Z,4.70
2018-11-07T22:32:39.801Z,4.47
2018-11-07T22:35:10.267Z,4.53
2018-11-07T22:37:38.879Z,5.07
2018-11-07T22:40:09.314Z,4.67
2018-11-07T22:42:38.142Z,4.90
2018-11-07T22:45:07.560Z,5.03
2018-11-07T22:47:36.672Z,4.90
2018-11-07T22:50:05.699Z,4.50
2018-11-07T22:52:34.343Z,4.63
2018-11-07T22:55:02.954Z,4.87
2018-11-07T22:57:31.725Z,5.10
2018-11-07T23:00:00.336Z,4.90
2018-11-07T23:02:28.968Z,4.67
2018-11-07T23:04:57.569Z,5.20
2018-11-07T23:07:26.205Z,4.93
2018-11-07T23:09:54.814Z,4.67
2018-11-07T23:12:23.431Z,4.97
2018-11-07T23:14:52.041Z,4.63
2018-11-07T23:17:20.677Z,5.00
2018-11-07T23:19:49.374Z,4.80
2018-11-07T23:22:18.081Z,4.57
2018-11-07T23:24:46.686Z,4.93
2018-11-07T23:27:15.295Z,5.10
2018-11-07T23:29:43.902Z,5.03
2018-11-07T23:32:12.738Z,4.40
2018-11-07T23:34:41.484Z,4.30
2018-11-07T23:37:10.113Z,4.60
2018-11-07T23:39:38.719Z,4.80
2018-11-07T23:42:07.352Z,5.27
2018-11-07T23:44:36.012Z,4.83
2018-11-07T23:47:04.640Z,5.00
2018-11-07T23:49:33.197Z,5.20
2018-11-07T23:52:01.837Z,4.67
2018-11-07T23:54:30.469Z,5.10
2018-11-07T23:56:59.070Z,4.80
2018-11-07T23:59:27.708Z,4.93
